createdAt,value
2022-11-15T00:03:16.927Z,86.1
2022-11-15T00:08:17.143Z,85.2
2022-11-15T00:14:06.708Z,85.5
2022-11-15T00:19:06.696Z,85.5
2022-11-15T00:24:16.966Z,86.5
2022-11-15T00:30:06.551Z,86
2022-11-15T00:35:06.702Z,87
2022-11-15T00:40:16.736Z,86.2
2022-11-15T00:45:16.971Z,87.1
2022-11-15T00:50:17.004Z,87.2
2022-11-15T00:56:06.663Z,86.6
2022-11-15T01:01:17.051Z,86.3
2022-11-15T01:07:06.708Z,86.4
2022-11-15T01:12:06.731Z,86.1
2022-11-15T01:17:16.982Z,85.7
2022-11-15T01:22:16.956Z,85.7
2022-11-15T01:27:16.997Z,85.6
2022-11-15T01:33:06.704Z,85.9
2022-11-15T01:38:16.980Z,85.9
2022-11-15T01:44:06.673Z,86.4
2022-11-15T01:49:16.988Z,86.3
2022-11-15T01:55:06.680Z,86.8
2022-11-15T02:00:16.995Z,87.7
2022-11-15T02:06:06.720Z,87.4
2022-11-15T02:11:16.985Z,88.4
2022-11-15T02:17:06.428Z,87.8
2022-11-15T02:22:16.968Z,86.9
2022-11-15T02:27:16.987Z,89
2022-11-15T02:32:16.985Z,89.2
2022-11-15T02:38:06.485Z,88.6
2022-11-15T02:43:08.486Z,88.3
2022-11-15T02:48:16.776Z,88.3
2022-11-15T02:54:06.717Z,87.8
2022-11-15T02:59:16.782Z,87.8
2022-11-15T03:05:06.729Z,87.4
2022-11-15T03:10:16.829Z,87.3
2022-11-15T03:15:16.937Z,87.1
2022-11-15T03:20:16.979Z,86.7
2022-11-15T03:25:16.975Z,86.6
2022-11-15T03:31:06.698Z,86.7
2022-11-15T03:36:06.684Z,86.6
2022-11-15T03:41:16.994Z,87.2
2022-11-15T03:47:06.638Z,86.5
2022-11-15T03:52:17.019Z,86.1
2022-11-15T03:58:06.442Z,86.3
2022-11-15T04:03:06.515Z,86.3
2022-11-15T04:08:16.698Z,85.8
2022-11-15T04:13:19.012Z,86
2022-11-15T04:19:06.484Z,85.5
2022-11-15T04:24:06.484Z,85.9
2022-11-15T04:29:16.798Z,85.2
2022-11-15T04:35:06.499Z,85.6
2022-11-15T04:40:06.457Z,86
2022-11-15T04:45:16.766Z,86.6
2022-11-15T04:50:16.817Z,86.2
2022-11-15T04:56:06.920Z,86.9
2022-11-15T05:01:16.849Z,87.4
2022-11-15T05:06:16.918Z,87.2
2022-11-15T05:12:07.360Z,86.8
2022-11-15T05:17:16.838Z,86.6
2022-11-15T05:22:16.979Z,86.5
2022-11-15T05:28:06.688Z,86.8
2022-11-15T05:33:16.787Z,86.3
2022-11-15T05:38:16.976Z,86
2022-11-15T05:44:06.514Z,85.3
2022-11-15T05:49:06.648Z,85.7
2022-11-15T05:54:06.702Z,86.1
2022-11-15T05:59:16.949Z,84.8
2022-11-15T06:04:16.951Z,85.6
2022-11-15T06:09:17.019Z,86
2022-11-15T06:14:23.331Z,86
2022-11-15T06:20:06.663Z,85.4
2022-11-15T06:25:06.790Z,86.3
2022-11-15T06:30:06.738Z,86.7
2022-11-15T06:35:06.791Z,84.9
2022-11-15T06:40:17.035Z,85.8
2022-11-15T06:45:16.963Z,84.8
2022-11-15T06:51:06.539Z,85.1
2022-11-15T06:56:16.998Z,85.4
2022-11-15T07:01:17.090Z,84.7
2022-11-15T07:07:06.697Z,84.1
2022-11-15T07:12:08.001Z,84.7
2022-11-15T07:17:16.999Z,84.2
2022-11-15T07:23:06.966Z,83.3
2022-11-15T07:28:17.041Z,83.2
2022-11-15T07:34:06.819Z,83
2022-11-15T07:39:16.972Z,83.1
2022-11-15T07:44:17.100Z,82.3
2022-11-15T07:49:18.352Z,81.9
2022-11-15T07:55:06.667Z,81.2
2022-11-15T08:00:06.830Z,81.7
2022-11-15T08:05:16.957Z,82.7
2022-11-15T08:11:06.681Z,82.2
2022-11-15T08:16:06.834Z,81.7
2022-11-15T08:21:18.370Z,80.5
2022-11-15T08:27:07.024Z,80.5
2022-11-15T08:32:17.049Z,80.3
2022-11-15T08:38:06.683Z,79.8
2022-11-15T08:43:16.990Z,80
2022-11-15T08:49:06.556Z,78.9
2022-11-15T08:54:06.779Z,79.5
2022-11-15T08:59:07.379Z,78.5
2022-11-15T09:04:16.792Z,78
2022-11-15T09:09:17.013Z,77.7
2022-11-15T09:14:17.001Z,76.5
2022-11-15T09:20:06.693Z,76.9
2022-11-15T09:25:10.001Z,75.9
2022-11-15T09:30:06.762Z,75.4
2022-11-15T09:35:17.140Z,75.7
2022-11-15T09:41:06.663Z,75.3
2022-11-15T09:46:16.977Z,73.9
2022-11-15T09:52:06.797Z,72.9
2022-11-15T09:57:09.405Z,73.7
2022-11-15T10:02:16.965Z,72.5
2022-11-15T10:07:17.068Z,72.3
2022-11-15T10:13:06.526Z,72.2
2022-11-15T10:18:16.984Z,72.1
2022-11-15T10:24:06.565Z,72.1
2022-11-15T10:29:06.564Z,71.7
2022-11-15T10:34:16.761Z,71.3
2022-11-15T10:40:06.587Z,70
2022-11-15T10:45:06.549Z,69.8
2022-11-15T10:50:06.572Z,68.8
2022-11-15T10:55:06.593Z,69.1
2022-11-15T11:00:16.863Z,67.9
2022-11-15T11:06:06.521Z,66.7
2022-11-15T11:11:16.853Z,66.5
2022-11-15T11:17:06.559Z,66.5
2022-11-15T11:22:06.521Z,66.8
2022-11-15T11:27:06.586Z,66.2
2022-11-15T11:32:16.829Z,66.1
2022-11-15T11:37:16.881Z,67.4
2022-11-15T11:42:16.976Z,65.6
2022-11-15T11:47:17.178Z,65
2022-11-15T11:53:06.810Z,66.7
2022-11-15T11:58:16.975Z,68.1
2022-11-15T12:03:17.027Z,68.3
2022-11-15T12:08:17.072Z,67.3
2022-11-15T12:14:06.704Z,66.6
2022-11-15T12:19:07.773Z,66.8
2022-11-15T12:24:17.004Z,66.4
2022-11-15T12:30:06.676Z,65.4
2022-11-15T12:35:06.680Z,66.1
2022-11-15T12:40:07.239Z,64.9
2022-11-15T12:45:16.952Z,64.9
2022-11-15T12:50:16.967Z,64.8
2022-11-15T12:56:06.826Z,63.9
2022-11-15T13:01:16.798Z,63.8
2022-11-15T13:06:16.816Z,63.1
2022-11-15T13:11:16.969Z,62.6
2022-11-15T13:17:06.713Z,63.1
2022-11-15T13:22:06.841Z,63.1
2022-11-15T13:27:16.997Z,63.2
2022-11-15T13:32:27.258Z,62.4
2022-11-15T13:38:06.719Z,63
2022-11-15T13:43:16.989Z,64
2022-11-15T13:48:17.027Z,64.8
2022-11-15T13:54:06.790Z,64.2
2022-11-15T13:59:16.963Z,65.3
2022-11-15T14:05:06.453Z,65
2022-11-15T14:10:06.831Z,64.3
2022-11-15T14:15:17.213Z,65.5
2022-11-15T14:21:06.684Z,65.5
2022-11-15T14:26:17.016Z,64.6
2022-11-15T14:32:06.623Z,64.9
2022-11-15T14:37:06.779Z,66.2
2022-11-15T14:42:06.908Z,66.1
2022-11-15T14:47:17.087Z,66.5
2022-11-15T14:53:06.516Z,66.8
2022-11-15T14:58:06.696Z,67.2
2022-11-15T15:03:06.742Z,67.7
2022-11-15T15:08:06.954Z,68
2022-11-15T15:13:17.104Z,69.3
2022-11-15T15:19:06.699Z,69.3
2022-11-15T15:24:06.693Z,69.8
2022-11-15T15:29:17.121Z,70.1
2022-11-15T15:35:06.744Z,70.2
2022-11-15T15:40:06.735Z,70.6
2022-11-15T15:45:17.003Z,69.7
2022-11-15T15:51:14.105Z,70
2022-11-15T15:56:17.088Z,70
2022-11-15T16:02:06.494Z,70
2022-11-15T16:07:06.787Z,70.6
2022-11-15T16:12:06.757Z,70.1
2022-11-15T16:17:06.789Z,70.7
2022-11-15T16:22:06.947Z,71
2022-11-15T16:27:16.970Z,71.2
2022-11-15T16:32:17.164Z,71.6
2022-11-15T16:38:06.672Z,71.7
2022-11-15T16:43:16.807Z,72.9
2022-11-15T16:49:06.590Z,72.3
2022-11-15T16:54:16.829Z,73
2022-11-15T17:00:06.512Z,72.9
2022-11-15T17:05:10.339Z,73.6
2022-11-15T17:10:06.575Z,74.2
2022-11-15T17:15:16.752Z,74.7
2022-11-15T17:21:06.623Z,74.8
2022-11-15T17:26:29.458Z,74.8
2022-11-15T17:32:06.612Z,75.3
2022-11-15T17:37:06.760Z,75.7
2022-11-15T17:42:16.787Z,76.1
2022-11-15T17:47:16.882Z,76.1
2022-11-15T17:52:16.921Z,75.8
2022-11-15T17:57:16.963Z,76.1
2022-11-15T18:03:06.733Z,74.8
2022-11-15T18:08:10.206Z,75.8
2022-11-15T18:13:16.972Z,76.3
2022-11-15T18:18:17.155Z,76.8
2022-11-15T18:24:06.715Z,77.1
2022-11-15T18:29:16.957Z,78
2022-11-15T18:34:17.037Z,79.7
2022-11-15T18:40:06.734Z,79.9
2022-11-15T18:45:06.743Z,80.6
2022-11-15T18:50:16.978Z,81.7
2022-11-15T18:56:06.684Z,83.2
2022-11-15T19:01:06.959Z,83.8
2022-11-15T19:06:16.899Z,83.8
2022-11-15T19:11:16.989Z,84.7
2022-11-15T19:16:16.996Z,84.7
2022-11-15T19:21:17.233Z,85.5
2022-11-15T19:27:06.670Z,85.8
2022-11-15T19:32:16.800Z,85.9
2022-11-15T19:37:17.165Z,87.3
2022-11-15T19:42:17.014Z,86.3
2022-11-15T19:48:06.692Z,86.8
2022-11-15T19:53:06.830Z,86.8
2022-11-15T19:58:16.817Z,87.5
2022-11-15T20:03:16.997Z,86.9
2022-11-15T20:09:06.676Z,87
2022-11-15T20:14:06.739Z,86.9
2022-11-15T20:19:16.991Z,87.8
2022-11-15T20:25:06.634Z,87.2
2022-11-15T20:30:06.800Z,87.5
2022-11-15T20:35:07.245Z,86.6
2022-11-15T20:40:16.981Z,86.8
2022-11-15T20:45:17.157Z,87.3
2022-11-15T20:51:06.709Z,87.8
2022-11-15T20:56:06.726Z,87.6
2022-11-15T21:01:07.079Z,86.9
2022-11-15T21:06:17.012Z,86.7
2022-11-15T21:12:06.705Z,88
2022-11-15T21:17:06.742Z,87.2
2022-11-15T21:22:06.825Z,88
2022-11-15T21:27:06.832Z,86.6
2022-11-15T21:32:17.780Z,87.8
2022-11-15T21:38:06.688Z,86.8
2022-11-15T21:43:06.707Z,88.4
2022-11-15T21:48:06.761Z,88.3
2022-11-15T21:53:16.924Z,87.7
2022-11-15T21:58:16.804Z,87.5
2022-11-15T22:03:16.819Z,87.9
2022-11-15T22:08:17.033Z,87.7
2022-11-15T22:14:06.717Z,88.3
2022-11-15T22:19:06.798Z,89.3
2022-11-15T22:24:16.980Z,89.1
2022-11-15T22:30:06.688Z,88.7
2022-11-15T22:35:06.782Z,88.3
2022-11-15T22:40:07.137Z,88.6
2022-11-15T22:45:17.000Z,88.3
2022-11-15T22:50:17.178Z,88.8
2022-11-15T22:56:06.533Z,89
2022-11-15T23:01:16.875Z,88.8
2022-11-15T23:07:06.546Z,89
2022-11-15T23:12:06.512Z,88.7
2022-11-15T23:17:16.829Z,89
2022-11-15T23:23:11.449Z,89.4
2022-11-15T23:28:16.804Z,89.3
2022-11-15T23:34:06.509Z,88.9
2022-11-15T23:39:06.850Z,88.7
2022-11-15T23:44:16.758Z,89.3
2022-11-15T23:49:16.792Z,89.2
2022-11-15T23:54:16.877Z,88.1
